Time;durP1;ratioP1;P1;durP2;ratioP2;P2;SDS_P1;SDS_P2;PMS_P1;PMS_P2;Temp;Humidity;BMP_temperature;BMP_pressure;BME280_temperature;BME280_humidity;BME280_pressure;Samples;Min_cycle;Max_cycle;Signal;HPM_P1;HPM_P2
2021/01/30 00:00:12;;;;;;;4.65;2.78;;;;;;;;;;5058180;28;20024;-82
2021/01/30 00:02:38;;;;;;;5.57;3.22;;;;;;;;;;5076670;28;20037;-82
2021/01/30 00:05:05;;;;;;;7.28;2.50;;;;;;;;;;5075053;28;20334;-82
2021/01/30 00:07:32;;;;;;;5.78;2.75;;;;;;;;;;5076528;28;20042;-83
2021/01/30 00:09:58;;;;;;;8.48;3.33;;;;;;;;;;5076160;28;20028;-81
2021/01/30 00:12:23;;;;;;;7.95;3.13;;;;;;;;;;5073546;28;20044;-83
2021/01/30 00:14:53;;;;;;;7.82;3.97;;;;;;;;;;5075111;28;20544;-82
2021/01/30 00:17:18;;;;;;;8.43;2.80;;;;;;;;;;5060575;28;20032;-83
2021/01/30 00:19:44;;;;;;;10.45;3.78;;;;;;;;;;5059495;28;20079;-84
2021/01/30 00:22:14;;;;;;;10.85;2.97;;;;;;;;;;5058559;28;20078;-81
2021/01/30 00:24:43;;;;;;;5.90;2.67;;;;;;;;;;5079508;28;20024;-80
2021/01/30 00:27:18;;;;;;;7.93;3.00;;;;;;;;;;5062985;28;20031;-83
2021/01/30 00:29:46;;;;;;;4.10;2.90;;;;;;;;;;5054980;28;20028;-81
2021/01/30 00:32:11;;;;;;;14.70;3.50;;;;;;;;;;5073609;28;20024;-81
2021/01/30 00:34:40;;;;;;;8.10;2.50;;;;;;;;;;5055527;28;20027;-81
2021/01/30 00:37:12;;;;;;;7.47;2.28;;;;;;;;;;5074649;28;20384;-81
2021/01/30 00:39:38;;;;;;;6.95;3.05;;;;;;;;;;5076132;28;20170;-83
2021/01/30 00:42:09;;;;;;;9.45;3.03;;;;;;;;;;5074794;28;20043;-83
2021/01/30 00:44:34;;;;;;;5.25;2.88;;;;;;;;;;5075381;28;20080;-83
2021/01/30 00:47:00;;;;;;;4.80;2.53;;;;;;;;;;5075820;28;20465;-81
2021/01/30 00:49:26;;;;;;;5.28;2.80;;;;;;;;;;5057385;28;20412;-84
2021/01/30 00:51:51;;;;;;;5.30;2.58;;;;;;;;;;5057802;28;20023;-81
2021/01/30 00:54:17;;;;;;;8.43;2.88;;;;;;;;;;5076990;28;21812;-81
2021/01/30 00:56:43;;;;;;;9.00;2.60;;;;;;;;;;5055651;28;20544;-84
2021/01/30 00:59:09;;;;;;;6.25;2.92;;;;;;;;;;5054846;28;20036;-81
2021/01/30 01:01:38;;;;;;;3.50;1.90;;;;;;;;;;5057286;28;20035;-81
2021/01/30 01:04:04;;;;;;;7.15;3.08;;;;;;;;;;5058057;28;20035;-81
2021/01/30 01:06:29;;;;;;;15.73;3.22;;;;;;;;;;5076286;28;20025;-83
2021/01/30 01:08:57;;;;;;;9.35;2.30;;;;;;;;;;5074409;28;20028;-80
2021/01/30 01:11:24;;;;;;;7.88;2.33;;;;;;;;;;5060405;28;20120;-83
2021/01/30 01:13:50;;;;;;;8.25;2.63;;;;;;;;;;5075553;28;20155;-81
2021/01/30 01:16:18;;;;;;;13.50;2.97;;;;;;;;;;5058356;28;20017;-81
2021/01/30 01:18:46;;;;;;;6.43;2.95;;;;;;;;;;5042417;28;20125;-81
2021/01/30 01:21:12;;;;;;;6.32;1.70;;;;;;;;;;5056424;28;20123;-81
2021/01/30 01:23:39;;;;;;;8.20;2.42;;;;;;;;;;5079752;28;20120;-83
2021/01/30 01:26:04;;;;;;;10.15;2.20;;;;;;;;;;5077788;28;20024;-81
2021/01/30 01:28:32;;;;;;;10.50;2.72;;;;;;;;;;5075615;28;20109;-81
2021/01/30 01:31:00;;;;;;;5.68;2.45;;;;;;;;;;5051856;28;20024;-81
2021/01/30 01:33:25;;;;;;;7.10;3.42;;;;;;;;;;5058461;28;20175;-82
2021/01/30 01:35:53;;;;;;;5.55;3.40;;;;;;;;;;5052224;28;20032;-82
2021/01/30 01:38:21;;;;;;;2.80;2.20;;;;;;;;;;5078099;28;20039;-83
2021/01/30 01:40:46;;;;;;;13.57;3.95;;;;;;;;;;5062613;28;20012;-83
2021/01/30 01:43:12;;;;;;;8.38;3.50;;;;;;;;;;5080501;28;20132;-80
2021/01/30 01:45:38;;;;;;;10.18;3.33;;;;;;;;;;5063116;28;20024;-83
2021/01/30 01:48:07;;;;;;;21.17;4.35;;;;;;;;;;5082717;28;20054;-80
2021/01/30 01:50:43;;;;;;;11.65;3.83;;;;;;;;;;5065029;28;20089;-82
2021/01/30 01:53:14;;;;;;;8.60;3.95;;;;;;;;;;5089436;28;20075;-82
2021/01/30 01:55:47;;;;;;;16.60;3.95;;;;;;;;;;5087798;28;20017;-80
2021/01/30 01:58:13;;;;;;;17.80;4.13;;;;;;;;;;5082458;28;20024;-81
2021/01/30 02:00:39;;;;;;;10.63;3.42;;;;;;;;;;5088248;28;20046;-81
2021/01/30 02:03:06;;;;;;;14.68;3.83;;;;;;;;;;5102386;28;20032;-82
2021/01/30 02:05:33;;;;;;;9.85;4.03;;;;;;;;;;5102227;28;20155;-79
2021/01/30 02:08:03;;;;;;;10.68;3.88;;;;;;;;;;5078912;28;20040;-82
2021/01/30 02:10:36;;;;;;;11.73;4.47;;;;;;;;;;5071190;28;20031;-81
2021/01/30 02:13:03;;;;;;;18.25;4.63;;;;;;;;;;5077601;28;20687;-81
2021/01/30 02:15:31;;;;;;;10.38;4.75;;;;;;;;;;5064367;28;20055;-82
2021/01/30 02:18:17;;;;;;;15.98;4.95;;;;;;;;;;5066872;28;20035;-82
2021/01/30 02:20:45;;;;;;;12.38;4.82;;;;;;;;;;5063020;28;20035;-83
2021/01/30 02:23:33;;;;;;;13.82;4.13;;;;;;;;;;5083571;28;20098;-81
2021/01/30 02:26:17;;;;;;;17.27;4.47;;;;;;;;;;5057015;28;20138;-82
2021/01/30 02:28:46;;;;;;;11.55;4.22;;;;;;;;;;5080107;28;20064;-82
2021/01/30 02:31:30;;;;;;;13.40;4.50;;;;;;;;;;5079842;28;20029;-81
2021/01/30 02:34:01;;;;;;;10.93;3.63;;;;;;;;;;5080090;28;20115;-82
2021/01/30 02:36:26;;;;;;;10.98;3.97;;;;;;;;;;5060820;28;20038;-80
2021/01/30 02:39:02;;;;;;;12.82;4.45;;;;;;;;;;5061758;28;20024;-81
2021/01/30 02:41:35;;;;;;;9.38;4.88;;;;;;;;;;5077963;28;20016;-81
2021/01/30 02:44:03;;;;;;;10.45;5.07;;;;;;;;;;5060855;28;20082;-80
2021/01/30 02:46:32;;;;;;;12.90;4.90;;;;;;;;;;5056998;28;20404;-82
2021/01/30 02:49:01;;;;;;;11.02;3.75;;;;;;;;;;5076164;28;20016;-79
2021/01/30 02:51:29;;;;;;;8.07;3.70;;;;;;;;;;5076879;28;20047;-84
2021/01/30 02:53:56;;;;;;;9.13;4.13;;;;;;;;;;5080128;28;20024;-81
2021/01/30 02:56:23;;;;;;;17.42;4.75;;;;;;;;;;5060561;28;20149;-81
2021/01/30 02:58:52;;;;;;;19.02;5.55;;;;;;;;;;5077992;28;20336;-84
2021/01/30 03:01:21;;;;;;;12.27;5.32;;;;;;;;;;5093129;28;20028;-81
2021/01/30 03:03:49;;;;;;;10.82;4.32;;;;;;;;;;5089166;28;20662;-79
2021/01/30 03:06:21;;;;;;;14.00;4.68;;;;;;;;;;5052078;28;20520;-81
2021/01/30 03:08:55;;;;;;;10.40;4.00;;;;;;;;;;5067309;28;20054;-81
2021/01/30 03:11:34;;;;;;;7.13;3.60;;;;;;;;;;5087964;28;20036;-79
2021/01/30 03:14:19;;;;;;;12.00;4.68;;;;;;;;;;5069048;28;20066;-82
2021/01/30 03:16:51;;;;;;;9.88;4.03;;;;;;;;;;5061068;28;20051;-82
2021/01/30 03:19:21;;;;;;;13.00;5.45;;;;;;;;;;5079202;28;20032;-80
2021/01/30 03:21:51;;;;;;;10.07;4.50;;;;;;;;;;5078935;28;20095;-83
2021/01/30 03:24:20;;;;;;;26.10;4.47;;;;;;;;;;5076216;28;21875;-80
2021/01/30 03:26:48;;;;;;;10.48;4.22;;;;;;;;;;5061598;28;20036;-83
2021/01/30 03:29:17;;;;;;;16.45;4.50;;;;;;;;;;5076133;28;20025;-83
2021/01/30 03:31:42;;;;;;;17.60;4.30;;;;;;;;;;5075460;28;20033;-81
2021/01/30 03:34:09;;;;;;;11.70;3.42;;;;;;;;;;5073956;28;20027;-80
2021/01/30 03:36:35;;;;;;;12.50;4.45;;;;;;;;;;5074293;28;20080;-82
2021/01/30 03:39:00;;;;;;;11.38;3.92;;;;;;;;;;5074552;28;20557;-80
2021/01/30 03:41:25;;;;;;;7.25;3.38;;;;;;;;;;5075739;28;20020;-83
2021/01/30 03:43:53;;;;;;;16.13;4.43;;;;;;;;;;5058917;28;20077;-81
2021/01/30 03:46:22;;;;;;;5.80;3.25;;;;;;;;;;5056059;28;20497;-80
2021/01/30 03:48:50;;;;;;;8.38;3.15;;;;;;;;;;5055318;28;20028;-81
2021/01/30 03:51:18;;;;;;;12.60;4.30;;;;;;;;;;5057401;28;20020;-80
2021/01/30 03:53:43;;;;;;;15.10;4.13;;;;;;;;;;5077760;28;20574;-83
2021/01/30 03:56:12;;;;;;;5.93;2.83;;;;;;;;;;5054307;28;20105;-80
2021/01/30 03:58:44;;;;;;;7.10;3.15;;;;;;;;;;5056968;28;20412;-81
2021/01/30 04:01:11;;;;;;;13.32;3.25;;;;;;;;;;5074160;28;20132;-85
2021/01/30 04:03:39;;;;;;;37.40;4.13;;;;;;;;;;5074315;28;20030;-83
2021/01/30 04:06:04;;;;;;;5.57;3.00;;;;;;;;;;5056547;28;20043;-81
2021/01/30 04:08:30;;;;;;;11.40;3.92;;;;;;;;;;5077290;28;20032;-82
2021/01/30 04:10:55;;;;;;;12.05;3.05;;;;;;;;;;5060099;28;20024;-80
2021/01/30 04:13:21;;;;;;;7.15;3.15;;;;;;;;;;5037720;28;20619;-81
2021/01/30 04:15:47;;;;;;;16.13;3.65;;;;;;;;;;5033134;28;20025;-81
2021/01/30 04:18:13;;;;;;;8.93;3.22;;;;;;;;;;4982580;28;20026;-81
2021/01/30 04:20:39;;;;;;;8.82;2.42;;;;;;;;;;4972276;28;20115;-82
2021/01/30 04:23:05;;;;;;;16.70;3.80;;;;;;;;;;5018727;28;20018;-80
2021/01/30 04:25:31;;;;;;;13.48;3.42;;;;;;;;;;5034861;28;20623;-81
2021/01/30 04:27:57;;;;;;;7.35;2.10;;;;;;;;;;5008580;28;20127;-80
2021/01/30 04:30:32;;;;;;;8.35;2.97;;;;;;;;;;5044949;28;20034;-82
2021/01/30 04:32:57;;;;;;;7.95;3.55;;;;;;;;;;5010477;28;20031;-79
2021/01/30 04:35:31;;;;;;;8.88;3.08;;;;;;;;;;5030592;28;20048;-82
2021/01/30 04:37:57;;;;;;;7.85;3.25;;;;;;;;;;5041462;28;20023;-81
2021/01/30 04:40:22;;;;;;;12.35;2.70;;;;;;;;;;5043046;28;20033;-82
2021/01/30 04:42:55;;;;;;;13.88;3.13;;;;;;;;;;5035726;28;20048;-81
2021/01/30 04:45:28;;;;;;;7.83;2.63;;;;;;;;;;5017679;28;20068;-81
2021/01/30 04:48:03;;;;;;;9.07;2.75;;;;;;;;;;4978385;28;20297;-82
2021/01/30 04:50:45;;;;;;;13.48;3.35;;;;;;;;;;5018998;28;20523;-81
2021/01/30 04:53:17;;;;;;;6.40;2.80;;;;;;;;;;5041524;28;20043;-82
2021/01/30 04:56:01;;;;;;;9.02;3.17;;;;;;;;;;4972825;28;20023;-81
2021/01/30 04:58:50;;;;;;;5.15;2.65;;;;;;;;;;5055395;28;20016;-81
2021/01/30 05:01:25;;;;;;;6.55;2.67;;;;;;;;;;5047749;28;20031;-81
2021/01/30 05:03:53;;;;;;;7.28;3.63;;;;;;;;;;4994845;28;20042;-83
2021/01/30 05:06:21;;;;;;;10.93;3.25;;;;;;;;;;4971836;28;20026;-82
2021/01/30 05:08:58;;;;;;;4.40;2.38;;;;;;;;;;5003169;28;20066;-83
2021/01/30 05:11:26;;;;;;;5.28;2.45;;;;;;;;;;5025809;28;20044;-82
2021/01/30 05:14:10;;;;;;;9.15;2.72;;;;;;;;;;5026431;28;20057;-80
2021/01/30 05:16:50;;;;;;;6.25;2.40;;;;;;;;;;5062739;28;20065;-82
2021/01/30 05:19:17;;;;;;;7.40;2.78;;;;;;;;;;5064222;28;20017;-81
2021/01/30 05:21:45;;;;;;;3.13;2.38;;;;;;;;;;5036028;28;20034;-82
2021/01/30 05:24:11;;;;;;;8.25;3.17;;;;;;;;;;5012969;28;20061;-81
2021/01/30 05:26:51;;;;;;;10.65;3.03;;;;;;;;;;4975801;28;20109;-80
2021/01/30 05:29:25;;;;;;;5.85;3.13;;;;;;;;;;4976642;28;20042;-82
2021/01/30 05:31:50;;;;;;;12.35;3.30;;;;;;;;;;5036736;28;20146;-80
2021/01/30 05:34:18;;;;;;;6.82;3.25;;;;;;;;;;5019035;28;20500;-82
2021/01/30 05:36:55;;;;;;;4.40;2.97;;;;;;;;;;4978176;28;20026;-83
2021/01/30 05:39:23;;;;;;;5.13;2.83;;;;;;;;;;5046348;28;20089;-82
2021/01/30 05:41:49;;;;;;;11.93;2.90;;;;;;;;;;5038714;28;20650;-80
2021/01/30 05:44:26;;;;;;;13.75;3.33;;;;;;;;;;4990152;28;20053;-82
2021/01/30 05:46:52;;;;;;;8.32;3.47;;;;;;;;;;5037090;28;20049;-83
2021/01/30 05:49:23;;;;;;;6.28;2.83;;;;;;;;;;4976766;28;20039;-82
2021/01/30 05:52:06;;;;;;;15.93;3.75;;;;;;;;;;5042368;28;20116;-81
2021/01/30 05:54:32;;;;;;;3.67;2.05;;;;;;;;;;4994534;28;20028;-80
2021/01/30 05:56:57;;;;;;;7.10;3.45;;;;;;;;;;5029439;28;20083;-83
2021/01/30 05:59:28;;;;;;;10.05;3.65;;;;;;;;;;5054886;28;20087;-82
2021/01/30 06:02:15;;;;;;;8.98;3.90;;;;;;;;;;4996360;28;20049;-80
2021/01/30 06:04:40;;;;;;;12.68;3.92;;;;;;;;;;5013712;28;20124;-81
2021/01/30 06:07:16;;;;;;;6.38;3.00;;;;;;;;;;5028015;28;20517;-82
2021/01/30 06:09:45;;;;;;;9.10;3.75;;;;;;;;;;5045797;28;20052;-81
2021/01/30 06:12:17;;;;;;;9.05;3.60;;;;;;;;;;5001718;28;20042;-83
2021/01/30 06:14:42;;;;;;;9.45;3.08;;;;;;;;;;4976876;28;20039;-82
2021/01/30 06:17:15;;;;;;;8.93;3.60;;;;;;;;;;5046843;28;20036;-80
2021/01/30 06:19:41;;;;;;;7.75;3.50;;;;;;;;;;5032396;28;20033;-82
2021/01/30 06:22:11;;;;;;;12.52;4.07;;;;;;;;;;4985849;28;20106;-83
2021/01/30 06:24:44;;;;;;;8.57;3.80;;;;;;;;;;5011206;28;20066;-81
2021/01/30 06:27:15;;;;;;;9.70;3.47;;;;;;;;;;5044438;28;20040;-79
2021/01/30 06:29:50;;;;;;;5.72;3.20;;;;;;;;;;4976592;28;20030;-83
2021/01/30 06:32:19;;;;;;;6.13;2.90;;;;;;;;;;5020813;28;20166;-79
2021/01/30 06:34:49;;;;;;;7.38;3.17;;;;;;;;;;5028926;28;20028;-80
2021/01/30 06:37:36;;;;;;;10.02;4.30;;;;;;;;;;5044953;28;20081;-82
2021/01/30 06:40:05;;;;;;;11.93;3.17;;;;;;;;;;4976614;28;20089;-82
2021/01/30 06:42:33;;;;;;;8.93;2.60;;;;;;;;;;4983115;28;20036;-81
2021/01/30 06:45:06;;;;;;;14.15;4.32;;;;;;;;;;5043873;28;20483;-83
2021/01/30 06:47:44;;;;;;;12.95;3.75;;;;;;;;;;5045470;28;20117;-82
2021/01/30 06:50:17;;;;;;;10.02;3.63;;;;;;;;;;5011175;28;20182;-82
2021/01/30 06:52:45;;;;;;;12.63;3.25;;;;;;;;;;4979201;28;20065;-82
2021/01/30 06:55:14;;;;;;;5.97;3.47;;;;;;;;;;4985378;28;20022;-81
2021/01/30 06:57:48;;;;;;;5.72;3.20;;;;;;;;;;5042545;28;20029;-82
2021/01/30 07:00:14;;;;;;;8.88;4.13;;;;;;;;;;5018649;28;20032;-79
2021/01/30 07:02:42;;;;;;;10.93;3.50;;;;;;;;;;4973286;28;20041;-79
2021/01/30 07:05:08;;;;;;;7.30;3.47;;;;;;;;;;4974350;28;20179;-82
2021/01/30 07:07:34;;;;;;;11.10;3.40;;;;;;;;;;4967774;28;20149;-80
2021/01/30 07:10:14;;;;;;;5.63;3.40;;;;;;;;;;5026644;28;20141;-80
2021/01/30 07:12:46;;;;;;;7.93;2.80;;;;;;;;;;4974129;28;20054;-81
2021/01/30 07:15:15;;;;;;;7.53;3.70;;;;;;;;;;5049681;28;20048;-82
2021/01/30 07:17:40;;;;;;;7.53;3.55;;;;;;;;;;5001446;28;20355;-80
2021/01/30 07:20:19;;;;;;;6.95;2.58;;;;;;;;;;5042083;28;20040;-80
2021/01/30 07:22:44;;;;;;;6.82;2.95;;;;;;;;;;4999045;28;20042;-81
2021/01/30 07:25:14;;;;;;;8.85;2.75;;;;;;;;;;4988679;28;20035;-80
2021/01/30 07:27:47;;;;;;;7.93;3.20;;;;;;;;;;5005595;28;20036;-80
2021/01/30 07:30:17;;;;;;;7.50;2.90;;;;;;;;;;5033777;28;20494;-82
2021/01/30 07:33:01;;;;;;;7.63;3.60;;;;;;;;;;4998216;28;20038;-82
2021/01/30 07:35:32;;;;;;;6.60;3.88;;;;;;;;;;4972194;28;20028;-82
2021/01/30 07:38:10;;;;;;;8.88;3.20;;;;;;;;;;5035152;28;20119;-82
2021/01/30 07:40:41;;;;;;;9.93;3.58;;;;;;;;;;5015034;28;20094;-82
2021/01/30 07:43:15;;;;;;;8.98;3.67;;;;;;;;;;5047731;28;20024;-81
2021/01/30 07:45:48;;;;;;;12.18;4.43;;;;;;;;;;5023217;28;20639;-80
2021/01/30 07:48:17;;;;;;;13.20;5.25;;;;;;;;;;5016284;28;20031;-82
2021/01/30 07:50:49;;;;;;;6.78;3.97;;;;;;;;;;4974318;28;20038;-80
2021/01/30 07:53:30;;;;;;;13.52;4.13;;;;;;;;;;4970105;28;20033;-79
2021/01/30 07:56:14;;;;;;;6.88;3.05;;;;;;;;;;5038750;28;20465;-80
2021/01/30 07:58:40;;;;;;;;;;;;;;;;;;5001158;28;20199;-81
2021/01/30 08:01:24;;;;;;;6.32;3.55;;;;;;;;;;5043963;28;20294;-80
2021/01/30 08:04:02;;;;;;;7.22;3.58;;;;;;;;;;5038596;28;20044;-80
2021/01/30 08:06:27;;;;;;;5.03;2.92;;;;;;;;;;5016044;28;20364;-80
2021/01/30 08:09:12;;;;;;;11.73;4.55;;;;;;;;;;5040429;28;20042;-80
2021/01/30 08:11:42;;;;;;;10.48;4.55;;;;;;;;;;4974574;28;20044;-81
2021/01/30 08:14:13;;;;;;;10.15;3.15;;;;;;;;;;5046822;28;20133;-80
2021/01/30 08:16:57;;;;;;;5.03;2.92;;;;;;;;;;4986666;28;20046;-80
2021/01/30 08:19:51;;;;;;;13.93;3.70;;;;;;;;;;4991249;28;20050;-79
2021/01/30 08:22:35;;;;;;;6.88;3.65;;;;;;;;;;4987935;28;20424;-81
2021/01/30 08:25:13;;;;;;;16.70;3.90;;;;;;;;;;4989900;28;20039;-79
2021/01/30 08:27:41;;;;;;;8.52;4.63;;;;;;;;;;4968418;28;20058;-80
2021/01/30 08:30:19;;;;;;;11.95;3.67;;;;;;;;;;4990632;28;20725;-81
2021/01/30 08:33:10;;;;;;;8.27;3.95;;;;;;;;;;4983776;28;20111;-80
2021/01/30 08:35:47;;;;;;;9.23;3.88;;;;;;;;;;4987422;28;20127;-80
2021/01/30 08:38:15;;;;;;;8.95;4.30;;;;;;;;;;4980226;28;20038;-80
2021/01/30 08:40:51;;;;;;;7.13;3.80;;;;;;;;;;4975886;28;20038;-81
2021/01/30 08:43:35;;;;;;;8.95;4.95;;;;;;;;;;4948565;28;20103;-81
2021/01/30 08:46:20;;;;;;;13.13;3.88;;;;;;;;;;4987085;28;20041;-81
2021/01/30 08:48:53;;;;;;;12.80;4.73;;;;;;;;;;4991706;28;20021;-81
2021/01/30 08:51:19;;;;;;;6.60;3.83;;;;;;;;;;4972163;28;20930;-82
2021/01/30 08:53:47;;;;;;;10.77;3.95;;;;;;;;;;5012706;28;20118;-81
2021/01/30 08:56:35;;;;;;;13.90;3.47;;;;;;;;;;5046008;28;20099;-80
2021/01/30 08:59:01;;;;;;;9.50;4.20;;;;;;;;;;4976669;28;20030;-81
2021/01/30 09:01:26;;;;;;;8.48;4.22;;;;;;;;;;5044935;28;20020;-81
2021/01/30 09:03:54;;;;;;;8.18;3.90;;;;;;;;;;5033140;28;20031;-81
2021/01/30 09:06:38;;;;;;;10.00;4.50;;;;;;;;;;4977605;28;20021;-83
2021/01/30 09:09:05;;;;;;;8.23;4.13;;;;;;;;;;4978694;28;20038;-80
2021/01/30 09:11:34;;;;;;;12.77;4.68;;;;;;;;;;5032145;28;20032;-81
2021/01/30 09:14:32;;;;;;;10.68;4.28;;;;;;;;;;5029655;28;20547;-81
2021/01/30 09:16:57;;;;;;;7.20;3.50;;;;;;;;;;5024326;28;20027;-82
2021/01/30 09:19:37;;;;;;;12.20;4.10;;;;;;;;;;5044547;28;20039;-84
2021/01/30 09:22:38;;;;;;;8.05;3.72;;;;;;;;;;5039327;28;20070;-82
2021/01/30 09:25:13;;;;;;;9.18;4.40;;;;;;;;;;4978937;28;20042;-80
2021/01/30 09:27:47;;;;;;;6.47;3.25;;;;;;;;;;5041594;28;20046;-79
2021/01/30 09:30:32;;;;;;;7.63;3.80;;;;;;;;;;5041768;28;20037;-79
2021/01/30 09:32:59;;;;;;;11.63;4.13;;;;;;;;;;5052316;28;20024;-81
2021/01/30 09:35:36;;;;;;;11.95;4.03;;;;;;;;;;5059563;28;20044;-81
2021/01/30 09:38:31;;;;;;;13.98;4.50;;;;;;;;;;4994361;28;20121;-82
2021/01/30 09:41:05;;;;;;;5.28;2.80;;;;;;;;;;4990526;28;20064;-82
2021/01/30 09:43:31;;;;;;;;;;;;;;;;;;4967733;28;20057;-79
2021/01/30 09:46:00;;;;;;;8.27;3.95;;;;;;;;;;5012215;28;20362;-83
2021/01/30 09:48:27;;;;;;;8.88;3.95;;;;;;;;;;5011892;28;20091;-80
2021/01/30 09:50:54;;;;;;;7.55;3.60;;;;;;;;;;4977567;28;20034;-79
2021/01/30 09:53:41;;;;;;;7.75;4.20;;;;;;;;;;4978023;28;20422;-83
2021/01/30 09:56:08;;;;;;;8.50;4.03;;;;;;;;;;5013875;28;20027;-83
2021/01/30 09:58:36;;;;;;;7.07;3.55;;;;;;;;;;5052395;28;20035;-83
2021/01/30 10:01:04;;;;;;;8.23;3.97;;;;;;;;;;5045937;28;20037;-83
2021/01/30 10:03:39;;;;;;;11.43;5.38;;;;;;;;;;4978730;28;20566;-82
2021/01/30 10:06:09;;;;;;;11.35;5.85;;;;;;;;;;4988510;28;20038;-79
2021/01/30 10:08:35;;;;;;;9.98;5.55;;;;;;;;;;4996468;28;20025;-80
2021/01/30 10:11:06;;;;;;;8.88;4.18;;;;;;;;;;5027160;28;20027;-80
2021/01/30 10:13:35;;;;;;;9.05;4.05;;;;;;;;;;4993580;28;20177;-80
2021/01/30 10:16:09;;;;;;;6.35;3.42;;;;;;;;;;5032299;28;20051;-80
2021/01/30 10:18:38;;;;;;;9.05;4.18;;;;;;;;;;4975117;28;20038;-81
2021/01/30 10:21:12;;;;;;;6.05;3.63;;;;;;;;;;5012148;28;20813;-86
2021/01/30 10:23:48;;;;;;;5.65;3.30;;;;;;;;;;5030225;28;20041;-80
2021/01/30 10:26:25;;;;;;;6.85;2.80;;;;;;;;;;5052261;28;20032;-79
2021/01/30 10:28:57;;;;;;;5.63;3.30;;;;;;;;;;5040068;28;20103;-81
2021/01/30 10:31:40;;;;;;;5.43;3.15;;;;;;;;;;5063291;28;20063;-80
2021/01/30 10:34:23;;;;;;;9.27;3.58;;;;;;;;;;5049204;28;20031;-80
2021/01/30 10:36:53;;;;;;;6.75;3.58;;;;;;;;;;5048014;28;20365;-80
2021/01/30 10:39:24;;;;;;;5.63;2.90;;;;;;;;;;4991157;28;20062;-82
2021/01/30 10:41:56;;;;;;;7.53;3.15;;;;;;;;;;5062090;28;20037;-83
2021/01/30 10:44:28;;;;;;;5.07;3.20;;;;;;;;;;5030214;28;20136;-84
2021/01/30 10:47:31;;;;;;;;;;;;;;;;;;;;;
2021/01/30 10:50:06;;;;;;;7.95;3.40;;;;;;;;;;4969780;28;20407;-84
2021/01/30 10:52:32;;;;;;;6.13;3.65;;;;;;;;;;4975200;28;20034;-84
2021/01/30 10:55:20;;;;;;;5.93;2.80;;;;;;;;;;5045902;28;20425;-84
2021/01/30 10:57:53;;;;;;;9.05;3.22;;;;;;;;;;4975535;28;20117;-82
2021/01/30 11:00:21;;;;;;;4.68;3.17;;;;;;;;;;5041912;28;20083;-82
2021/01/30 11:02:49;;;;;;;5.35;3.35;;;;;;;;;;4977550;28;20050;-82
2021/01/30 11:05:21;;;;;;;4.18;2.75;;;;;;;;;;5018761;28;20043;-82
2021/01/30 11:07:55;;;;;;;5.25;3.55;;;;;;;;;;5003316;28;20082;-82
2021/01/30 11:10:27;;;;;;;4.97;2.95;;;;;;;;;;5025608;28;20396;-81
2021/01/30 11:13:24;;;;;;;;;;;;;;;;;;;;;
2021/01/30 11:16:09;;;;;;;4.35;2.83;;;;;;;;;;4988365;28;20669;-82
2021/01/30 11:18:39;;;;;;;7.18;2.97;;;;;;;;;;5029351;28;20145;-83
2021/01/30 11:21:11;;;;;;;4.45;2.83;;;;;;;;;;5020992;28;20058;-80
2021/01/30 11:23:39;;;;;;;9.68;2.85;;;;;;;;;;5006614;28;20030;-82
2021/01/30 11:26:43;;;;;;;6.55;3.50;;;;;;;;;;4973152;28;20023;-82
2021/01/30 11:29:27;;;;;;;6.50;3.55;;;;;;;;;;4996652;28;20121;-81
2021/01/30 11:32:04;;;;;;;7.10;3.53;;;;;;;;;;5004908;28;20105;-83
2021/01/30 11:34:33;;;;;;;5.80;3.10;;;;;;;;;;5052004;28;20020;-81
2021/01/30 11:37:03;;;;;;;6.82;3.35;;;;;;;;;;5057691;28;20027;-81
2021/01/30 11:39:32;;;;;;;7.75;3.08;;;;;;;;;;4976807;28;20035;-84
2021/01/30 11:41:59;;;;;;;8.25;2.95;;;;;;;;;;5007354;28;20723;-82
2021/01/30 11:44:25;;;;;;;5.90;3.72;;;;;;;;;;5058110;28;20027;-81
2021/01/30 11:46:51;;;;;;;8.98;3.28;;;;;;;;;;5022861;28;20104;-82
2021/01/30 11:49:17;;;;;;;5.30;3.28;;;;;;;;;;5062765;28;20217;-82
2021/01/30 11:51:46;;;;;;;5.95;3.15;;;;;;;;;;5038659;28;20042;-81
2021/01/30 11:54:16;;;;;;;11.18;3.83;;;;;;;;;;5025872;28;20544;-82
2021/01/30 11:56:44;;;;;;;12.98;5.45;;;;;;;;;;5039726;28;20048;-81
2021/01/30 11:59:10;;;;;;;5.10;2.97;;;;;;;;;;5046466;28;20027;-82
2021/01/30 12:01:35;;;;;;;4.80;3.28;;;;;;;;;;5049061;28;20462;-82
2021/01/30 12:04:07;;;;;;;3.58;2.40;;;;;;;;;;5058881;28;20028;-80
2021/01/30 12:06:55;;;;;;;6.43;2.92;;;;;;;;;;5048659;28;20032;-82
2021/01/30 12:09:23;;;;;;;5.50;2.97;;;;;;;;;;5056939;28;20059;-83
2021/01/30 12:11:49;;;;;;;6.43;2.85;;;;;;;;;;5041687;28;20070;-80
2021/01/30 12:14:14;;;;;;;3.97;2.80;;;;;;;;;;5057931;28;20113;-82
2021/01/30 12:16:42;;;;;;;4.68;3.08;;;;;;;;;;5020160;28;20079;-79
2021/01/30 12:19:08;;;;;;;4.50;2.60;;;;;;;;;;5041527;28;20027;-82
2021/01/30 12:21:39;;;;;;;7.60;3.35;;;;;;;;;;4974642;28;20027;-84
2021/01/30 12:24:10;;;;;;;6.97;2.80;;;;;;;;;;5027398;28;20090;-81
2021/01/30 12:34:00;;;;;;;4.55;2.90;;;;;;;;;;4932287;28;20081;-81
2021/01/30 12:36:41;;;;;;;3.85;2.88;;;;;;;;;;4997794;28;20526;-81
2021/01/30 12:39:13;;;;;;;3.65;2.63;;;;;;;;;;5041553;28;20105;-83
2021/01/30 12:41:53;;;;;;;5.95;3.10;;;;;;;;;;5019154;28;20094;-82
2021/01/30 12:44:52;;;;;;;5.53;3.15;;;;;;;;;;4976759;28;20022;-82
2021/01/30 12:47:48;;;;;;;3.28;2.45;;;;;;;;;;5039416;28;20054;-83
2021/01/30 12:50:23;;;;;;;4.28;2.83;;;;;;;;;;5050190;28;20918;-83
2021/01/30 12:52:52;;;;;;;4.22;2.55;;;;;;;;;;4992982;28;20034;-81
2021/01/30 12:55:20;;;;;;;6.40;3.10;;;;;;;;;;4989891;28;20022;-82
2021/01/30 12:57:51;;;;;;;5.68;3.25;;;;;;;;;;5032981;28;20041;-81
2021/01/30 13:00:20;;;;;;;4.50;3.30;;;;;;;;;;5044708;28;20533;-82
2021/01/30 13:02:54;;;;;;;6.93;3.10;;;;;;;;;;5008082;28;20045;-83
2021/01/30 13:05:20;;;;;;;6.07;3.47;;;;;;;;;;4996520;28;20041;-82
2021/01/30 13:07:46;;;;;;;6.95;3.63;;;;;;;;;;5043383;28;20286;-83
2021/01/30 13:10:15;;;;;;;5.63;3.47;;;;;;;;;;5024521;28;20646;-82
2021/01/30 13:12:40;;;;;;;5.97;3.50;;;;;;;;;;5037805;28;20027;-84
2021/01/30 13:15:07;;;;;;;8.25;3.65;;;;;;;;;;4971204;28;20058;-81
2021/01/30 13:17:33;;;;;;;6.10;3.42;;;;;;;;;;4974284;28;20034;-81
2021/01/30 13:19:59;;;;;;;6.13;4.03;;;;;;;;;;5005671;28;20020;-82
2021/01/30 13:22:27;;;;;;;6.57;3.55;;;;;;;;;;5058390;28;20029;-82
2021/01/30 13:24:52;;;;;;;7.70;3.90;;;;;;;;;;5032701;28;20080;-83
2021/01/30 13:27:18;;;;;;;9.48;4.35;;;;;;;;;;4974143;28;20034;-81
2021/01/30 13:29:44;;;;;;;7.28;4.55;;;;;;;;;;4975010;28;20191;-82
2021/01/30 13:32:12;;;;;;;6.47;3.80;;;;;;;;;;4979085;28;20022;-83
2021/01/30 13:34:40;;;;;;;8.13;3.95;;;;;;;;;;4999203;28;20048;-80
2021/01/30 13:37:05;;;;;;;9.48;4.43;;;;;;;;;;5041942;28;20026;-82
2021/01/30 13:39:31;;;;;;;9.27;4.53;;;;;;;;;;4995964;28;20045;-84
2021/01/30 13:41:59;;;;;;;11.07;4.18;;;;;;;;;;5045621;28;20369;-82
2021/01/30 13:44:26;;;;;;;6.43;3.60;;;;;;;;;;5013361;28;20023;-80
2021/01/30 13:46:51;;;;;;;9.00;4.82;;;;;;;;;;4986843;28;20026;-82
2021/01/30 13:49:17;;;;;;;7.05;4.03;;;;;;;;;;5055880;28;20051;-80
2021/01/30 13:51:45;;;;;;;7.47;4.30;;;;;;;;;;5030252;28;20038;-80
2021/01/30 13:54:11;;;;;;;7.40;4.20;;;;;;;;;;5015915;28;20039;-80
2021/01/30 13:56:42;;;;;;;11.70;4.43;;;;;;;;;;5026873;28;20048;-82
2021/01/30 13:59:07;;;;;;;7.88;4.45;;;;;;;;;;4990744;28;20073;-83
2021/01/30 14:01:32;;;;;;;8.65;4.63;;;;;;;;;;5039495;28;20034;-82
2021/01/30 14:03:58;;;;;;;11.07;5.97;;;;;;;;;;5009826;28;20119;-81
2021/01/30 14:06:24;;;;;;;11.25;5.40;;;;;;;;;;5014010;28;20369;-81
2021/01/30 14:08:52;;;;;;;8.20;5.15;;;;;;;;;;5041146;28;20040;-81
2021/01/30 14:11:21;;;;;;;12.23;4.60;;;;;;;;;;5026192;28;20029;-80
2021/01/30 14:13:48;;;;;;;8.88;5.25;;;;;;;;;;4998642;28;20137;-80
2021/01/30 14:16:16;;;;;;;9.13;4.95;;;;;;;;;;5012707;28;20488;-82
2021/01/30 14:18:42;;;;;;;8.60;4.97;;;;;;;;;;5014453;28;20122;-81
2021/01/30 14:21:15;;;;;;;10.77;5.25;;;;;;;;;;5044994;28;20028;-82
2021/01/30 14:23:40;;;;;;;7.35;5.03;;;;;;;;;;4994829;28;20870;-83
2021/01/30 14:26:08;;;;;;;8.75;5.00;;;;;;;;;;5055564;28;20131;-81
2021/01/30 14:28:34;;;;;;;9.77;5.13;;;;;;;;;;4993375;28;20656;-80
2021/01/30 14:31:00;;;;;;;9.32;5.60;;;;;;;;;;4990871;28;20134;-80
2021/01/30 14:33:25;;;;;;;15.82;5.95;;;;;;;;;;5038477;28;20136;-80
2021/01/30 14:35:51;;;;;;;10.52;5.80;;;;;;;;;;5042081;28;20413;-81
2021/01/30 14:38:17;;;;;;;9.27;5.50;;;;;;;;;;4987578;28;20603;-81
2021/01/30 14:40:44;;;;;;;12.45;6.20;;;;;;;;;;5036988;28;20031;-80
2021/01/30 14:43:12;;;;;;;10.98;6.35;;;;;;;;;;5041323;28;20020;-80
2021/01/30 14:45:43;;;;;;;10.70;5.90;;;;;;;;;;4974268;28;20018;-82
2021/01/30 14:48:13;;;;;;;11.30;5.32;;;;;;;;;;4971811;28;20035;-80
2021/01/30 14:50:38;;;;;;;16.45;6.95;;;;;;;;;;5030667;28;20048;-81
2021/01/30 14:53:04;;;;;;;11.27;6.85;;;;;;;;;;5059473;28;20095;-80
2021/01/30 14:55:33;;;;;;;11.80;6.00;;;;;;;;;;5062307;28;20151;-81
2021/01/30 14:57:58;;;;;;;13.27;7.10;;;;;;;;;;5032603;28;20030;-82
2021/01/30 15:00:26;;;;;;;11.68;6.65;;;;;;;;;;4976173;28;20056;-83
2021/01/30 15:02:54;;;;;;;13.93;6.90;;;;;;;;;;5042697;28;20036;-81
2021/01/30 15:05:24;;;;;;;11.93;6.97;;;;;;;;;;4989911;28;20022;-82
2021/01/30 15:07:52;;;;;;;17.20;7.63;;;;;;;;;;5038405;28;20126;-81
2021/01/30 15:10:20;;;;;;;14.00;7.78;;;;;;;;;;5040776;28;20037;-82